North Cascades National Park, WA

11:00 AM PDT on July 30, 2016 (GMT -0700)
Newhalem Helistop | | Change Station

Elev 504 ft 48.67 °N, 121.25 °W | Updated 16 seconds ago

Clear
Clear
74.7 °F
Feels Like 78 °F
N
5.0
Wind Variable Wind from West
Gusts 16.0 mph

Today
High -- | Low -- °F
--% Chance of Precip.
Yesterday
High -- | Low -- °F
Precip. -- in
Pressure 29.97 in
Visibility 10.0 miles
Clouds Clear
Heat Index 78 °F
Dew Point 53 °F
Humidity 47%
Rainfall 0.00 in
Snow Depth Not available.
5:38 AM 8:44 PM
Waning Crescent, 12% visible
METAR KAWO 301755Z AUTO 15007KT 10SM CLR 21/11 A2997 RMK AO1 10210 20120 52007
Pressure 29.97 in
Visibility 10.0 miles
Clouds Clear
Heat Index 78 °F
Dew Point 53 °F
Humidity 47%
Rainfall 0.00 in
Snow Depth Not available.
5:38 AM 8:44 PM
Waning Crescent, 12% visible
METAR KAWO 301755Z AUTO 15007KT 10SM CLR 21/11 A2997 RMK AO1 10210 20120 52007

10-Day Weather Forecast

Almanac

Astronomy

Jul. 30, 2016 Rise Set
Actual Time
Civil Twilight
Nautical Twilight
Astronomical Twilight
Moon
Length of Visible Light
Length of Day
Tomorrow will be .
, % of the Moon is Illuminated

Today's Extremes

State Highs State Lows

Community

WunderPhotos

Upload Photos

1,928,600 photos uploaded!

WunderBlog® & News

Nearby

Air Quality

  Air Quality AQ Index Pollutant
Not available.

Snow Depth

Station Depth Elevation

Earthquake Activity

City Distance Mag. Time & Date
Minimum magnitude displayed is 2.5.

Coastal Water Temperatures

Place Temperature

Stations

Nearby Weather Stations

Station Location Temp. Windchill Dew Point Humidity Wind Precip. Elev Updated Type
                   

Watches & Warnings

There are currently no watches in effect.